createdAt,value
2022-09-15T00:00:52.295Z,98819.40
2022-09-15T00:03:40.798Z,98813.40
2022-09-15T00:06:14.673Z,98809.40
2022-09-15T00:08:47.812Z,98810.60
2022-09-15T00:11:24.356Z,98811.60
2022-09-15T00:14:00.752Z,98807.20
2022-09-15T00:16:35.173Z,98808.20
2022-09-15T00:19:09.076Z,98806.00
2022-09-15T00:21:44.228Z,98802.00
2022-09-15T00:24:17.405Z,98793.00
2022-09-15T00:26:50.587Z,98783.60
2022-09-15T00:29:23.717Z,98781.00
2022-09-15T00:31:56.939Z,98773.00
2022-09-15T00:34:30.368Z,98768.40
2022-09-15T00:37:03.809Z,98766.00
2022-09-15T00:39:37.196Z,98765.80
2022-09-15T00:42:16.905Z,98766.40
2022-09-15T00:44:58.689Z,98760.60
2022-09-15T00:47:38.221Z,98759.60
2022-09-15T00:50:18.532Z,98761.20
2022-09-15T00:52:57.959Z,98759.20
2022-09-15T00:55:37.138Z,98765.80
2022-09-15T00:58:16.019Z,98772.00
2022-09-15T01:03:52.717Z,98782.60
2022-09-15T01:06:32.592Z,98778.40
2022-09-15T01:09:18.981Z,98773.20
2022-09-15T01:11:52.961Z,98768.60
2022-09-15T01:14:26.317Z,98771.40
2022-09-15T01:20:48.324Z,98779.00
2022-09-15T01:24:14.699Z,98776.60
2022-09-15T01:27:40.438Z,98777.60
2022-09-15T01:30:15.473Z,98783.20
2022-09-15T01:33:13.396Z,98777.60
2022-09-15T01:36:01.148Z,98767.20
2022-09-15T01:38:48.615Z,98757.60
2022-09-15T01:41:28.900Z,98760.40
2022-09-15T01:44:09.793Z,98763.20
2022-09-15T01:46:53.565Z,98767.60
2022-09-15T01:49:31.509Z,98767.00
2022-09-15T01:52:06.760Z,98770.60
2022-09-15T01:54:49.245Z,98773.20
2022-09-15T01:57:24.590Z,98773.00
2022-09-15T01:59:58.986Z,98776.00
2022-09-15T02:02:39.374Z,98774.80
2022-09-15T02:05:21.749Z,98771.20
2022-09-15T02:08:05.187Z,98770.40
2022-09-15T02:10:46.357Z,98768.80
2022-09-15T02:13:26.252Z,98772.80
2022-09-15T02:16:04.986Z,98772.40
2022-09-15T02:18:50.522Z,98777.40
2022-09-15T02:21:29.828Z,98781.40
2022-09-15T02:24:12.976Z,98787.40
2022-09-15T02:26:51.196Z,98790.80
2022-09-15T02:29:28.154Z,98791.40
2022-09-15T02:32:07.572Z,98795.60
2022-09-15T02:34:46.870Z,98792.20
2022-09-15T02:37:22.986Z,98794.20
2022-09-15T02:40:00.205Z,98797.40
2022-09-15T02:42:35.480Z,98794.40
2022-09-15T02:45:11.118Z,98792.60
2022-09-15T02:47:44.201Z,98788.60
2022-09-15T02:50:17.631Z,98793.80
2022-09-15T02:52:50.789Z,98790.00
2022-09-15T02:55:24.273Z,98781.80
2022-09-15T02:57:57.492Z,98788.80
2022-09-15T03:00:31.943Z,98794.00
2022-09-15T03:03:05.183Z,98795.40
2022-09-15T03:05:38.315Z,98791.60
2022-09-15T03:08:11.711Z,98788.00
2022-09-15T03:10:45.256Z,98789.80
2022-09-15T03:13:18.501Z,98790.80
2022-09-15T03:15:51.790Z,98792.80
2022-09-15T03:18:24.976Z,98794.20
2022-09-15T03:21:02.026Z,98800.60
2022-09-15T03:23:35.690Z,98801.40
2022-09-15T03:26:10.400Z,98801.80
2022-09-15T03:28:43.878Z,98815.40
2022-09-15T03:31:17.491Z,98823.20
2022-09-15T03:33:50.969Z,98825.80
2022-09-15T03:36:24.326Z,98824.00
2022-09-15T03:38:59.112Z,98829.20
2022-09-15T03:41:32.383Z,98840.20
2022-09-15T03:44:05.894Z,98843.80
2022-09-15T03:46:39.528Z,98851.00
2022-09-15T03:49:12.736Z,98840.60
2022-09-15T03:51:45.920Z,98845.20
2022-09-15T03:54:19.624Z,98851.80
2022-09-15T03:56:53.161Z,98864.00
2022-09-15T03:59:26.394Z,98874.80
2022-09-15T04:01:59.670Z,98885.80
2022-09-15T04:04:32.869Z,98880.40
2022-09-15T04:07:06.036Z,98876.00
2022-09-15T04:09:39.162Z,98882.40
2022-09-15T04:12:12.412Z,98874.20
2022-09-15T04:14:46.881Z,98871.20
2022-09-15T04:17:20.095Z,98868.20
2022-09-15T04:19:53.302Z,98873.40
2022-09-15T04:22:27.724Z,98881.20
2022-09-15T04:25:00.931Z,98880.40
2022-09-15T04:27:36.372Z,98884.20
2022-09-15T04:30:11.919Z,98889.40
2022-09-15T04:32:45.399Z,98892.60
2022-09-15T04:35:21.972Z,98896.00
2022-09-15T04:37:56.559Z,98884.40
2022-09-15T04:40:29.983Z,98882.20
2022-09-15T04:43:03.135Z,98889.60
2022-09-15T04:45:36.295Z,98900.60
2022-09-15T04:48:09.538Z,98893.40
2022-09-15T04:50:42.683Z,98893.20
2022-09-15T04:53:15.857Z,98894.20
2022-09-15T04:55:49.301Z,98895.80
2022-09-15T04:58:22.509Z,98902.00
2022-09-15T05:00:55.793Z,98905.40
2022-09-15T05:03:29.067Z,98914.20
2022-09-15T05:06:02.384Z,98917.40
2022-09-15T05:08:36.584Z,98920.40
2022-09-15T05:11:13.135Z,98921.80
2022-09-15T05:13:47.182Z,98923.60
2022-09-15T05:16:31.581Z,98924.00
2022-09-15T05:19:06.195Z,98913.60
2022-09-15T05:21:40.393Z,98911.80
2022-09-15T05:24:14.673Z,98914.20
2022-09-15T05:26:48.535Z,98918.20
2022-09-15T05:29:21.850Z,98915.00
2022-09-15T05:31:55.293Z,98918.00
2022-09-15T05:34:28.630Z,98924.20
2022-09-15T05:37:02.430Z,98928.40
2022-09-15T05:39:35.597Z,98929.80
2022-09-15T05:42:10.046Z,98935.80
2022-09-15T05:44:43.237Z,98946.20
2022-09-15T05:47:17.050Z,98942.80
2022-09-15T05:49:50.295Z,98942.00
2022-09-15T05:52:23.573Z,98946.80
2022-09-15T05:54:59.102Z,98935.00
2022-09-15T05:57:33.409Z,98936.80
2022-09-15T06:00:09.149Z,98940.20
2022-09-15T06:03:13.585Z,98940.00
2022-09-15T06:05:47.960Z,98941.20
2022-09-15T06:08:21.225Z,98941.60
2022-09-15T06:10:54.581Z,98943.80
2022-09-15T06:13:27.923Z,98939.40
2022-09-15T06:16:08.725Z,98946.20
2022-09-15T06:18:43.245Z,98948.20
2022-09-15T06:21:19.711Z,98944.40
2022-09-15T06:23:57.784Z,98947.60
2022-09-15T06:26:32.205Z,98940.80
2022-09-15T06:29:07.664Z,98938.80
2022-09-15T06:31:41.770Z,98948.60
2022-09-15T06:34:15.663Z,98949.00
2022-09-15T06:36:48.943Z,98957.00
2022-09-15T06:39:22.393Z,98957.20
2022-09-15T06:42:04.869Z,98954.80
2022-09-15T06:44:40.925Z,98950.80
2022-09-15T06:47:17.779Z,98952.40
2022-09-15T06:49:50.988Z,98948.00
2022-09-15T06:52:24.803Z,98951.80
2022-09-15T06:54:58.365Z,98960.00
2022-09-15T06:57:31.672Z,98966.40
2022-09-15T07:00:06.773Z,98970.40
2022-09-15T07:02:40.118Z,98970.40
2022-09-15T07:05:13.629Z,98965.40
2022-09-15T07:07:46.829Z,98964.00
2022-09-15T07:10:20.566Z,98968.40
2022-09-15T07:12:54.190Z,98968.00
2022-09-15T07:15:27.555Z,98973.20
2022-09-15T07:18:01.389Z,98976.60
2022-09-15T07:20:35.611Z,98981.20
2022-09-15T07:23:08.838Z,98988.20
2022-09-15T07:25:45.328Z,98993.40
2022-09-15T07:28:19.405Z,98994.00
2022-09-15T07:31:25.620Z,99002.80
2022-09-15T07:33:59.922Z,99003.00
2022-09-15T07:36:35.226Z,98997.60
2022-09-15T07:39:08.912Z,98999.20
2022-09-15T07:41:44.408Z,99007.40
2022-09-15T07:44:17.631Z,99012.00
2022-09-15T07:46:50.964Z,99015.20
2022-09-15T07:49:25.380Z,99020.40
2022-09-15T07:51:58.659Z,99024.60
2022-09-15T07:54:31.960Z,99031.20
2022-09-15T07:57:06.577Z,99037.40
2022-09-15T07:59:41.326Z,99040.40
2022-09-15T08:02:21.095Z,99050.20
2022-09-15T08:04:54.533Z,99046.00
2022-09-15T08:07:27.834Z,99051.40
2022-09-15T08:10:00.971Z,99054.60
2022-09-15T08:12:34.335Z,99060.40
2022-09-15T08:15:08.588Z,99068.20
2022-09-15T08:17:41.709Z,99064.40
2022-09-15T08:20:15.401Z,99059.20
2022-09-15T08:22:48.575Z,99063.00
2022-09-15T08:25:21.898Z,99069.40
2022-09-15T08:27:56.605Z,99071.20
2022-09-15T08:30:30.534Z,99065.20
2022-09-15T08:33:03.699Z,99063.00
2022-09-15T08:35:36.964Z,99055.00
2022-09-15T08:38:10.128Z,99051.80
2022-09-15T08:40:48.385Z,99058.00
2022-09-15T08:43:28.552Z,99053.60
2022-09-15T08:46:08.960Z,99058.00
2022-09-15T08:48:49.778Z,99049.60
2022-09-15T08:51:34.761Z,99045.80
2022-09-15T08:54:18.024Z,99041.60
2022-09-15T08:56:53.032Z,99033.40
2022-09-15T08:59:35.704Z,99027.20
2022-09-15T09:03:05.098Z,99026.60
2022-09-15T09:05:54.260Z,99027.60
2022-09-15T09:09:00.341Z,99021.80
2022-09-15T09:11:55.791Z,99015.60
2022-09-15T09:14:48.223Z,99016.00
2022-09-15T09:17:39.376Z,99021.20
2022-09-15T09:20:35.632Z,99029.40
2022-09-15T09:23:16.438Z,99021.00
2022-09-15T09:25:50.819Z,99021.40
2022-09-15T09:28:37.626Z,99015.40
2022-09-15T09:31:20.641Z,99012.40
2022-09-15T09:34:11.616Z,99012.80
2022-09-15T09:36:44.780Z,99025.80
2022-09-15T09:39:18.703Z,99019.00
2022-09-15T09:41:52.175Z,99017.00
2022-09-15T09:44:32.104Z,99013.00
2022-09-15T09:47:06.388Z,99013.20
2022-09-15T09:49:48.055Z,99023.40
2022-09-15T09:52:37.926Z,99023.20
2022-09-15T09:55:27.088Z,99028.00
2022-09-15T09:58:19.518Z,99026.20
2022-09-15T10:00:53.155Z,99024.60
2022-09-15T10:03:33.090Z,99025.60
2022-09-15T10:06:13.477Z,99021.20
2022-09-15T10:09:04.516Z,99013.60
2022-09-15T10:11:51.503Z,99030.20
2022-09-15T10:14:31.196Z,99028.20
2022-09-15T10:17:11.167Z,99016.80
2022-09-15T10:19:54.329Z,99018.20
2022-09-15T10:22:34.953Z,99011.20
2022-09-15T10:25:57.975Z,99006.80
2022-09-15T10:28:31.325Z,99006.60
2022-09-15T10:31:11.431Z,99011.40
2022-09-15T10:33:47.823Z,99014.80
2022-09-15T10:36:32.400Z,99012.40
2022-09-15T10:39:19.438Z,99019.00
2022-09-15T10:42:04.548Z,99027.40
2022-09-15T10:44:50.142Z,99020.20
2022-09-15T10:47:39.871Z,99021.40
2022-09-15T10:50:25.174Z,99017.60
2022-09-15T10:53:19.454Z,99015.60
2022-09-15T10:56:04.560Z,99020.80
2022-09-15T10:58:58.819Z,99025.80
2022-09-15T11:02:13.325Z,99023.20
2022-09-15T11:05:21.948Z,99013.80
2022-09-15T11:08:24.420Z,99009.60
2022-09-15T11:11:10.645Z,99011.00
2022-09-15T11:14:00.358Z,99013.40
2022-09-15T11:16:51.293Z,99003.00
2022-09-15T11:19:51.277Z,99000.20
2022-09-15T11:22:30.270Z,98998.20
2022-09-15T11:25:18.752Z,98999.40
2022-09-15T11:28:01.076Z,98995.00
2022-09-15T11:30:47.552Z,98993.20
2022-09-15T11:33:26.154Z,98995.80
2022-09-15T11:36:04.727Z,98999.40
2022-09-15T11:38:50.237Z,98999.80
2022-09-15T11:44:41.562Z,99000.40
2022-09-15T11:47:26.923Z,98995.40
2022-09-15T11:50:07.082Z,98989.80
2022-09-15T11:52:59.666Z,98980.20
2022-09-15T11:55:39.323Z,98984.20
2022-09-15T11:58:24.896Z,98977.80
2022-09-15T12:01:04.174Z,98979.80
2022-09-15T12:03:46.316Z,98975.00
2022-09-15T12:06:27.171Z,98968.00
2022-09-15T12:09:04.082Z,98961.60
2022-09-15T12:11:44.181Z,98951.80
2022-09-15T12:14:28.063Z,98962.40
2022-09-15T12:17:04.959Z,98978.60
2022-09-15T12:19:53.418Z,98975.00
2022-09-15T12:22:39.054Z,98975.00
2022-09-15T12:25:23.109Z,98974.20
2022-09-15T12:28:41.281Z,98972.40
2022-09-15T12:31:34.489Z,98973.00
2022-09-15T12:34:37.177Z,98972.60
2022-09-15T12:37:16.506Z,98971.40
2022-09-15T12:39:51.218Z,98965.00
2022-09-15T12:42:27.690Z,98959.80
2022-09-15T12:45:06.128Z,98961.20
2022-09-15T12:47:42.573Z,98965.40
2022-09-15T12:50:30.590Z,98971.00
2022-09-15T12:53:20.710Z,98960.80
2022-09-15T12:55:58.670Z,98957.40
2022-09-15T12:58:39.962Z,98961.40
2022-09-15T13:01:49.719Z,98959.80
2022-09-15T13:04:55.110Z,98959.20
2022-09-15T13:07:58.910Z,98959.60
2022-09-15T13:10:40.131Z,98954.40
2022-09-15T13:13:38.470Z,98948.00
2022-09-15T13:16:19.528Z,98949.40
2022-09-15T13:19:09.722Z,98949.60
2022-09-15T13:21:49.483Z,98952.20
2022-09-15T13:24:30.472Z,98955.40
2022-09-15T13:27:07.136Z,98945.80
2022-09-15T13:29:50.103Z,98943.00
2022-09-15T13:32:41.037Z,98943.00
2022-09-15T13:35:39.168Z,98938.60
2022-09-15T13:38:52.783Z,98937.60
2022-09-15T13:42:07.026Z,98934.60
2022-09-15T13:45:33.218Z,98933.00
2022-09-15T13:48:32.100Z,98932.60
2022-09-15T13:51:14.160Z,98935.00
2022-09-15T13:53:52.019Z,98935.40
2022-09-15T13:56:30.319Z,98940.20
2022-09-15T13:59:14.142Z,98938.00
2022-09-15T14:01:49.194Z,98944.00
2022-09-15T14:04:27.917Z,98945.20
2022-09-15T14:07:03.416Z,98932.60
2022-09-15T14:09:45.403Z,98940.60
2022-09-15T14:12:20.072Z,98940.60
2022-09-15T14:14:58.147Z,98940.60
2022-09-15T14:17:34.217Z,98935.20
2022-09-15T14:20:25.330Z,98940.60
2022-09-15T14:22:59.013Z,98944.00
2022-09-15T14:25:32.888Z,98943.40
2022-09-15T14:28:08.113Z,98950.20
2022-09-15T14:30:47.886Z,98946.60
2022-09-15T14:33:21.831Z,98951.40
2022-09-15T14:35:55.736Z,98946.60
2022-09-15T14:38:30.107Z,98943.00
2022-09-15T14:41:03.182Z,98940.60
2022-09-15T14:43:42.826Z,98941.60
2022-09-15T14:46:19.249Z,98935.20
2022-09-15T14:48:52.631Z,98931.80
2022-09-15T14:51:33.006Z,98931.60
2022-09-15T14:54:11.152Z,98932.20
2022-09-15T14:56:47.305Z,98931.40
2022-09-15T14:59:27.848Z,98938.00
2022-09-15T15:02:18.089Z,98938.20
2022-09-15T15:04:57.477Z,98935.00
2022-09-15T15:07:35.936Z,98930.00
2022-09-15T15:10:18.372Z,98925.80
2022-09-15T15:12:57.262Z,98917.20
2022-09-15T15:15:32.258Z,98924.40
2022-09-15T15:18:38.348Z,98924.40
2022-09-15T15:21:37.300Z,98929.80
2022-09-15T15:24:23.418Z,98922.00
2022-09-15T15:26:56.686Z,98920.40
2022-09-15T15:29:47.091Z,98925.80
2022-09-15T15:32:25.052Z,98913.60
2022-09-15T15:35:03.073Z,98910.20
2022-09-15T15:37:38.088Z,98908.20
2022-09-15T15:40:20.968Z,98915.40
2022-09-15T15:43:00.060Z,98923.40
2022-09-15T15:45:36.497Z,98935.00
2022-09-15T15:48:11.498Z,98933.40
2022-09-15T15:50:44.737Z,98938.20
2022-09-15T15:53:17.911Z,98937.80
2022-09-15T15:55:52.056Z,98941.20
2022-09-15T15:58:26.201Z,98950.40
2022-09-15T16:01:00.674Z,98942.40
2022-09-15T16:03:34.937Z,98941.00
2022-09-15T16:06:10.940Z,98938.40
2022-09-15T16:08:47.352Z,98939.60
2022-09-15T16:11:28.291Z,98943.40
2022-09-15T16:14:01.478Z,98947.80
2022-09-15T16:16:34.932Z,98943.00
2022-09-15T16:19:08.547Z,98942.20
2022-09-15T16:21:45.757Z,98953.60
2022-09-15T16:24:19.471Z,98952.60
2022-09-15T16:26:53.914Z,98954.00
2022-09-15T16:29:31.362Z,98958.00
2022-09-15T16:32:07.098Z,98957.80
2022-09-15T16:34:40.247Z,98951.40
2022-09-15T16:37:13.407Z,98954.60
2022-09-15T16:39:46.619Z,98966.00
2022-09-15T16:42:20.040Z,98971.20
2022-09-15T16:44:53.294Z,98978.80
2022-09-15T16:47:26.569Z,98979.60
2022-09-15T16:49:59.944Z,98971.20
2022-09-15T16:52:33.101Z,98973.20
2022-09-15T16:55:16.746Z,98971.80
2022-09-15T16:57:49.973Z,98975.40
2022-09-15T17:00:24.208Z,98972.60
2022-09-15T17:02:57.436Z,98969.60
2022-09-15T17:05:36.799Z,98969.20
2022-09-15T17:08:12.304Z,98962.60
2022-09-15T17:10:45.707Z,98969.40
2022-09-15T17:13:25.053Z,98971.80
2022-09-15T17:16:02.204Z,98974.00
2022-09-15T17:18:35.557Z,98978.80
2022-09-15T17:21:10.670Z,98977.20
2022-09-15T17:23:47.907Z,98972.60
2022-09-15T17:26:27.623Z,98972.20
2022-09-15T17:29:04.471Z,98974.80
2022-09-15T17:31:37.813Z,98980.20
2022-09-15T17:34:15.520Z,98979.20
2022-09-15T17:36:49.061Z,98981.20
2022-09-15T17:39:22.274Z,98984.20
2022-09-15T17:41:55.434Z,98984.40
2022-09-15T17:44:28.771Z,98988.40
2022-09-15T17:47:01.904Z,98978.40
2022-09-15T17:49:35.295Z,98992.20
2022-09-15T17:52:09.760Z,98993.20
2022-09-15T17:54:42.896Z,98992.80
2022-09-15T17:57:15.963Z,99001.80
2022-09-15T17:59:49.094Z,99001.80
2022-09-15T18:02:22.958Z,99002.00
2022-09-15T18:04:56.537Z,99010.60
2022-09-15T18:07:30.137Z,99006.00
2022-09-15T18:10:03.335Z,99007.80
2022-09-15T18:12:36.439Z,99012.40
2022-09-15T18:15:16.030Z,99007.40
2022-09-15T18:17:49.802Z,99013.40
2022-09-15T18:20:26.392Z,99016.40
2022-09-15T18:23:00.192Z,99019.80
2022-09-15T18:25:36.899Z,99020.00
2022-09-15T18:28:10.652Z,99023.00
2022-09-15T18:30:46.182Z,99022.40
2022-09-15T18:33:21.644Z,99027.20
2022-09-15T18:35:58.971Z,99031.20
2022-09-15T18:38:42.245Z,99031.60
2022-09-15T18:41:15.482Z,99026.60
2022-09-15T18:43:49.997Z,99025.40
2022-09-15T18:46:23.295Z,99031.00
2022-09-15T18:48:56.567Z,99031.80
2022-09-15T18:51:50.534Z,99032.60
2022-09-15T18:54:21.456Z,99040.80
2022-09-15T18:56:54.603Z,99039.00
2022-09-15T18:59:28.213Z,99042.00
2022-09-15T19:02:01.742Z,99038.60
2022-09-15T19:04:40.417Z,99042.80
2022-09-15T19:07:14.278Z,99040.60
2022-09-15T19:09:54.335Z,99046.00
2022-09-15T19:12:29.805Z,99048.40
2022-09-15T19:15:03.033Z,99055.40
2022-09-15T19:17:36.548Z,99059.60
2022-09-15T19:20:13.268Z,99063.00
2022-09-15T19:22:47.527Z,99060.60
2022-09-15T19:25:20.666Z,99057.40
2022-09-15T19:27:53.827Z,99065.60
2022-09-15T19:30:27.031Z,99069.60
2022-09-15T19:33:00.257Z,99071.20
2022-09-15T19:35:33.716Z,99063.40
2022-09-15T19:38:06.927Z,99071.20
2022-09-15T19:40:40.194Z,99069.00
2022-09-15T19:43:13.482Z,99069.00
2022-09-15T19:45:46.967Z,99067.40
2022-09-15T19:48:20.139Z,99068.00
2022-09-15T19:50:53.382Z,99071.00
2022-09-15T19:53:26.930Z,99071.60
2022-09-15T19:56:00.266Z,99066.20
2022-09-15T19:58:39.157Z,99060.60
2022-09-15T20:01:13.783Z,99065.60
2022-09-15T20:06:45.369Z,99074.40
2022-09-15T20:09:19.287Z,99077.40
2022-09-15T20:11:52.427Z,99082.00
2022-09-15T20:14:25.721Z,99076.60
2022-09-15T20:17:01.147Z,99077.20
2022-09-15T20:19:35.305Z,99078.60
2022-09-15T20:22:08.539Z,99074.20
2022-09-15T20:24:42.508Z,99081.60
2022-09-15T20:27:15.637Z,99083.80
2022-09-15T20:29:49.135Z,99081.80
2022-09-15T20:35:13.154Z,99075.60
2022-09-15T20:37:46.989Z,99073.40
2022-09-15T20:40:20.308Z,99075.60
2022-09-15T20:42:53.656Z,99073.80
2022-09-15T20:45:27.139Z,99074.20
2022-09-15T20:48:00.624Z,99078.00
2022-09-15T20:50:35.232Z,99077.60
2022-09-15T20:53:08.507Z,99076.60
2022-09-15T20:55:41.658Z,99075.80
2022-09-15T20:58:15.191Z,99077.60
2022-09-15T21:00:48.464Z,99070.60
2022-09-15T21:03:23.922Z,99072.20
2022-09-15T21:06:03.570Z,99071.40
2022-09-15T21:08:37.691Z,99074.00
2022-09-15T21:11:12.500Z,99073.40
2022-09-15T21:13:47.632Z,99076.20
2022-09-15T21:16:23.561Z,99077.00
2022-09-15T21:18:59.210Z,99083.20
2022-09-15T21:21:34.608Z,99084.60
2022-09-15T21:24:10.676Z,99080.60
2022-09-15T21:26:58.748Z,99085.80
2022-09-15T21:29:32.321Z,99093.20
2022-09-15T21:32:06.068Z,99093.80
2022-09-15T21:34:39.667Z,99094.00
2022-09-15T21:37:12.874Z,99092.20
2022-09-15T21:39:46.048Z,99088.00
2022-09-15T21:42:19.635Z,99094.80
2022-09-15T21:44:53.030Z,99090.20
2022-09-15T21:47:26.224Z,99093.00
2022-09-15T21:50:01.294Z,99091.00
2022-09-15T21:52:38.247Z,99089.00
2022-09-15T21:55:12.762Z,99096.40
2022-09-15T21:57:46.094Z,99100.60
2022-09-15T22:00:20.350Z,99104.60
2022-09-15T22:02:56.276Z,99106.00
2022-09-15T22:05:29.899Z,99103.40
2022-09-15T22:08:05.142Z,99107.20
2022-09-15T22:10:38.902Z,99110.80
2022-09-15T22:13:14.474Z,99113.00
2022-09-15T22:15:47.686Z,99113.40
2022-09-15T22:18:20.968Z,99112.40
2022-09-15T22:21:03.460Z,99119.60
2022-09-15T22:23:36.827Z,99121.60
2022-09-15T22:26:13.847Z,99121.20
2022-09-15T22:28:49.124Z,99125.20
2022-09-15T22:31:32.494Z,99130.20
2022-09-15T22:34:05.977Z,99133.80
2022-09-15T22:36:39.840Z,99132.20
2022-09-15T22:39:26.985Z,99140.20
2022-09-15T22:42:12.573Z,99146.20
2022-09-15T22:44:46.181Z,99143.20
2022-09-15T22:47:21.594Z,99141.20
2022-09-15T22:49:58.822Z,99142.40
2022-09-15T22:52:32.115Z,99141.40
2022-09-15T22:55:05.705Z,99141.20
2022-09-15T22:57:39.671Z,99144.80
2022-09-15T23:00:16.304Z,99146.40
2022-09-15T23:02:50.009Z,99144.00
2022-09-15T23:05:23.136Z,99142.20
2022-09-15T23:07:56.268Z,99145.60
2022-09-15T23:10:30.750Z,99144.80
2022-09-15T23:13:03.836Z,99152.00
2022-09-15T23:15:38.373Z,99139.60
2022-09-15T23:18:11.504Z,99137.80
2022-09-15T23:20:45.358Z,99140.00
2022-09-15T23:23:18.463Z,99140.20
2022-09-15T23:25:51.601Z,99142.80
2022-09-15T23:28:25.286Z,99142.40
2022-09-15T23:30:59.843Z,99142.20
2022-09-15T23:33:34.046Z,99136.00
2022-09-15T23:36:11.812Z,99139.00
2022-09-15T23:38:48.426Z,99139.00
2022-09-15T23:41:22.301Z,99140.00
2022-09-15T23:43:56.927Z,99138.80
2022-09-15T23:46:30.193Z,99139.60
2022-09-15T23:49:03.319Z,99139.20
2022-09-15T23:51:36.477Z,99139.80
2022-09-15T23:54:09.792Z,99142.00
2022-09-15T23:56:43.406Z,99143.20
2022-09-15T23:59:16.806Z,99145.00
